createdAt,value
2022-08-11T00:01:55.967Z,23.90
2022-08-11T00:04:25.697Z,23.80
2022-08-11T00:06:55.356Z,23.80
2022-08-11T00:09:31.768Z,23.70
2022-08-11T00:12:14.838Z,23.80
2022-08-11T00:14:42.882Z,23.60
2022-08-11T00:17:12.562Z,23.60
2022-08-11T00:20:12.931Z,23.50
2022-08-11T00:22:31.010Z,23.50
2022-08-11T00:25:02.076Z,23.50
2022-08-11T00:27:38.181Z,23.50
2022-08-11T00:30:07.036Z,23.40
2022-08-11T00:32:35.396Z,23.40
2022-08-11T00:35:52.055Z,23.30
2022-08-11T00:37:54.673Z,23.40
2022-08-11T00:40:51.320Z,23.30
2022-08-11T00:43:36.508Z,23.30
2022-08-11T00:46:11.111Z,23.20
2022-08-11T00:49:13.407Z,23.20
2022-08-11T00:52:13.419Z,23.20
2022-08-11T00:54:49.394Z,23.20
2022-08-11T00:57:41.123Z,23.20
2022-08-11T01:00:16.578Z,23.10
2022-08-11T01:02:52.506Z,23.10
2022-08-11T01:05:31.372Z,23.10
2022-08-11T01:08:23.107Z,23.00
2022-08-11T01:11:15.251Z,23.00
2022-08-11T01:14:18.301Z,23.00
2022-08-11T01:17:27.351Z,22.90
2022-08-11T01:20:46.745Z,22.80
2022-08-11T01:23:53.056Z,22.80
2022-08-11T01:26:38.869Z,22.80
2022-08-11T01:29:36.810Z,22.70
2022-08-11T01:32:23.820Z,22.70
2022-08-11T01:35:31.137Z,22.60
2022-08-11T01:38:24.052Z,22.50
2022-08-11T01:41:22.129Z,22.60
2022-08-11T01:44:22.579Z,22.50
2022-08-11T01:47:09.211Z,22.50
2022-08-11T01:50:07.165Z,22.50
2022-08-11T01:53:18.682Z,22.40
2022-08-11T01:56:05.228Z,22.40
2022-08-11T01:58:58.415Z,22.30
2022-08-11T02:02:05.988Z,22.30
2022-08-11T02:05:29.893Z,22.20
2022-08-11T02:08:33.362Z,22.20
2022-08-11T02:11:31.594Z,22.10
2022-08-11T02:14:21.080Z,22.00
2022-08-11T02:17:19.660Z,22.00
2022-08-11T02:20:22.325Z,21.90
2022-08-11T02:24:04.555Z,22.00
2022-08-11T02:26:32.119Z,21.80
2022-08-11T02:29:13.416Z,21.80
2022-08-11T02:32:28.543Z,21.70
2022-08-11T02:35:10.718Z,21.70
2022-08-11T02:38:13.245Z,21.70
2022-08-11T02:40:46.129Z,21.60
2022-08-11T02:44:00.691Z,21.60
2022-08-11T02:46:48.453Z,21.60
2022-08-11T02:50:02.620Z,21.50
2022-08-11T02:52:59.761Z,21.50
2022-08-11T02:55:58.251Z,21.50
2022-08-11T02:58:39.902Z,21.40
2022-08-11T03:01:11.784Z,21.40
2022-08-11T03:04:11.208Z,21.30
2022-08-11T03:06:47.864Z,21.30
2022-08-11T03:09:30.041Z,21.30
2022-08-11T03:12:31.416Z,21.30
2022-08-11T03:15:30.034Z,21.20
2022-08-11T03:18:29.550Z,21.20
2022-08-11T03:21:11.451Z,21.20
2022-08-11T03:23:53.229Z,21.10
2022-08-11T03:26:43.440Z,21.10
2022-08-11T03:29:41.137Z,21.10
2022-08-11T03:33:17.178Z,21.10
2022-08-11T03:36:09.711Z,21.00
2022-08-11T03:39:00.067Z,21.00
2022-08-11T03:42:02.563Z,21.00
2022-08-11T03:44:43.767Z,21.00
2022-08-11T03:50:25.173Z,20.90
2022-08-11T03:53:00.276Z,20.90
2022-08-11T03:55:49.971Z,20.90
2022-08-11T03:58:57.911Z,20.80
2022-08-11T04:01:55.317Z,20.80
2022-08-11T04:04:59.019Z,20.80
2022-08-11T04:07:47.333Z,20.80
2022-08-11T04:10:41.576Z,20.70
2022-08-11T04:13:54.483Z,20.70
2022-08-11T04:16:44.609Z,20.70
2022-08-11T04:19:30.149Z,20.60
2022-08-11T04:22:05.947Z,20.60
2022-08-11T04:24:57.554Z,20.60
2022-08-11T04:27:53.515Z,20.50
2022-08-11T04:30:28.689Z,20.60
2022-08-11T04:32:59.783Z,20.50
2022-08-11T04:35:48.825Z,20.50
2022-08-11T04:38:46.541Z,20.50
2022-08-11T04:41:59.543Z,20.50
2022-08-11T04:45:06.614Z,20.50
2022-08-11T04:48:19.547Z,20.50
2022-08-11T04:51:26.589Z,20.50
2022-08-11T04:54:59.224Z,20.50
2022-08-11T04:58:12.344Z,20.50
2022-08-11T05:01:37.583Z,20.40
2022-08-11T05:04:41.962Z,20.40
2022-08-11T05:07:43.637Z,20.40
2022-08-11T05:10:51.755Z,20.30
2022-08-11T05:14:10.233Z,20.30
2022-08-11T05:17:06.863Z,20.30
2022-08-11T05:19:52.470Z,20.30
2022-08-11T05:22:40.149Z,20.20
2022-08-11T05:26:43.828Z,20.20
2022-08-11T05:28:48.841Z,20.30
2022-08-11T05:31:36.870Z,20.30
2022-08-11T05:34:30.994Z,20.40
2022-08-11T05:37:26.088Z,20.50
2022-08-11T05:40:19.673Z,20.60
2022-08-11T05:43:11.505Z,20.70
2022-08-11T05:46:04.638Z,20.80
2022-08-11T05:48:53.773Z,20.90
2022-08-11T05:51:49.933Z,21.00
2022-08-11T05:54:46.031Z,21.20
2022-08-11T05:57:49.673Z,21.30
2022-08-11T06:00:10.521Z,21.40
2022-08-11T06:02:46.562Z,21.60
2022-08-11T06:05:14.334Z,21.60
2022-08-11T06:07:48.964Z,21.80
2022-08-11T06:12:55.850Z,22.00
2022-08-11T06:15:23.227Z,22.10
2022-08-11T06:17:51.410Z,22.30
2022-08-11T06:20:19.620Z,22.30
2022-08-11T06:22:55.208Z,22.40
2022-08-11T06:25:22.632Z,22.50
2022-08-11T06:27:56.479Z,22.80
2022-08-11T06:30:42.584Z,23.00
2022-08-11T06:33:18.970Z,23.10
2022-08-11T06:36:09.265Z,23.30
2022-08-11T06:39:08.804Z,23.50
2022-08-11T06:41:44.560Z,23.60
2022-08-11T06:44:14.526Z,23.70
2022-08-11T06:46:42.720Z,23.90
2022-08-11T06:49:34.676Z,23.90
2022-08-11T06:52:07.223Z,24.10
2022-08-11T06:54:57.277Z,24.30
2022-08-11T06:57:43.046Z,24.40
2022-08-11T07:00:28.839Z,24.50
2022-08-11T07:03:10.526Z,24.70
2022-08-11T07:05:47.489Z,24.80
2022-08-11T07:08:51.774Z,24.90
2022-08-11T07:12:08.445Z,25.00
2022-08-11T07:15:00.551Z,25.20
2022-08-11T07:17:30.649Z,25.40
2022-08-11T07:20:20.010Z,25.50
2022-08-11T07:23:13.701Z,25.80
2022-08-11T07:26:02.295Z,26.00
2022-08-11T07:28:50.574Z,26.10
2022-08-11T07:34:07.442Z,26.50
2022-08-11T07:36:42.933Z,26.60
2022-08-11T07:39:19.063Z,26.80
2022-08-11T07:41:47.351Z,26.90
2022-08-11T07:44:17.143Z,27.00
2022-08-11T07:47:05.794Z,27.20
2022-08-11T07:49:55.657Z,27.30
2022-08-11T07:52:30.535Z,27.40
2022-08-11T07:55:00.864Z,27.60
2022-08-11T07:58:15.370Z,27.80
2022-08-11T08:01:03.389Z,28.00
2022-08-11T08:03:57.618Z,28.20
2022-08-11T08:09:30.564Z,28.70
2022-08-11T08:12:19.469Z,28.90
2022-08-11T08:15:05.171Z,29.00
2022-08-11T08:18:09.886Z,29.10
2022-08-11T08:20:50.656Z,29.30
2022-08-11T08:23:33.525Z,29.40
2022-08-11T08:26:26.459Z,29.50
2022-08-11T08:31:21.352Z,29.80
2022-08-11T08:33:48.529Z,30.00
2022-08-11T08:36:17.019Z,30.20
2022-08-11T08:38:50.681Z,30.40
2022-08-11T08:41:29.118Z,30.50
2022-08-11T08:44:34.672Z,30.70
2022-08-11T08:46:55.421Z,30.70
2022-08-11T08:49:40.417Z,30.70
2022-08-11T08:52:26.296Z,30.80
2022-08-11T08:55:04.478Z,30.90
2022-08-11T09:00:09.626Z,31.30
2022-08-11T09:02:41.372Z,31.30
2022-08-11T09:05:10.059Z,31.30
2022-08-11T09:07:40.628Z,31.50
2022-08-11T09:10:10.496Z,31.60
2022-08-11T09:12:40.012Z,31.70
2022-08-11T09:15:10.301Z,31.70
2022-08-11T09:17:46.402Z,31.80
2022-08-11T09:20:24.028Z,31.90
2022-08-11T09:26:20.805Z,31.90
2022-08-11T09:28:50.176Z,31.90
2022-08-11T09:31:17.510Z,31.90
2022-08-11T09:33:45.956Z,31.90
2022-08-11T09:36:32.362Z,32.00
2022-08-11T09:39:19.188Z,32.10
2022-08-11T09:42:01.424Z,32.20
2022-08-11T09:44:50.394Z,32.50
2022-08-11T09:47:26.629Z,32.10
2022-08-11T09:50:00.218Z,32.60
2022-08-11T09:52:29.510Z,32.70
2022-08-11T09:54:56.713Z,32.70
2022-08-11T09:57:44.005Z,32.70
2022-08-11T10:00:14.099Z,32.80
2022-08-11T11:51:01.122Z,32.10
2022-08-11T11:53:28.037Z,32.00
2022-08-11T11:55:55.836Z,32.00
2022-08-11T11:58:41.957Z,32.10
2022-08-11T12:01:19.905Z,32.20
2022-08-11T12:03:49.910Z,32.30
2022-08-11T12:06:19.934Z,32.10
2022-08-11T12:11:37.806Z,32.00
2022-08-11T12:14:10.693Z,32.00
2022-08-11T12:16:40.942Z,32.10
2022-08-11T12:19:35.798Z,32.10
2022-08-11T12:22:21.660Z,32.10
2022-08-11T12:25:07.422Z,32.10
2022-08-11T12:27:36.481Z,32.10
2022-08-11T12:30:08.588Z,32.00
2022-08-11T12:32:39.184Z,32.00
2022-08-11T12:35:07.225Z,32.00
2022-08-11T12:37:43.783Z,32.00
2022-08-11T12:40:43.830Z,32.00
2022-08-11T12:46:25.626Z,31.90
2022-08-11T12:49:17.053Z,31.90
2022-08-11T12:52:13.091Z,32.00
2022-08-11T14:25:59.981Z,31.70
2022-08-11T14:28:33.046Z,31.60
2022-08-11T14:31:05.455Z,31.50
2022-08-11T14:34:01.001Z,31.50
2022-08-11T14:36:23.873Z,31.50
2022-08-11T14:38:51.515Z,31.60
2022-08-11T14:41:37.541Z,31.60
2022-08-11T14:44:44.636Z,31.60
2022-08-11T14:47:24.008Z,31.60
2022-08-11T14:49:58.075Z,31.50
2022-08-11T14:52:38.471Z,31.50
2022-08-11T14:55:26.016Z,31.50
2022-08-11T14:58:04.836Z,31.50
2022-08-11T15:00:34.512Z,31.50
2022-08-11T15:03:13.988Z,31.50
2022-08-11T15:06:02.308Z,31.50
2022-08-11T15:08:51.334Z,31.50
2022-08-11T15:11:38.769Z,31.40
2022-08-11T15:14:08.464Z,31.50
2022-08-11T15:16:56.894Z,31.50
2022-08-11T15:19:25.162Z,31.50
2022-08-11T15:22:10.789Z,31.40
2022-08-11T15:24:37.871Z,31.50
2022-08-11T15:27:33.786Z,31.40
2022-08-11T15:30:33.081Z,31.40
2022-08-11T15:33:25.649Z,31.40
2022-08-11T15:36:13.233Z,31.40
2022-08-11T15:38:55.206Z,31.40
2022-08-11T15:41:54.539Z,31.40
2022-08-11T15:45:02.061Z,31.40
2022-08-11T15:47:41.402Z,31.40
2022-08-11T15:50:14.925Z,31.40
2022-08-11T15:52:51.069Z,31.40
2022-08-11T15:55:19.566Z,31.40
2022-08-11T15:58:08.291Z,31.40
2022-08-11T16:00:59.074Z,31.40
2022-08-11T16:04:07.146Z,31.40
2022-08-11T16:06:37.814Z,31.40
2022-08-11T16:09:08.947Z,31.40
2022-08-11T16:11:47.064Z,31.40
2022-08-11T16:14:34.507Z,31.40
2022-08-11T16:17:03.582Z,31.40
2022-08-11T16:19:35.729Z,31.40
2022-08-11T16:22:10.096Z,31.30
2022-08-11T16:27:04.680Z,31.30
2022-08-11T16:27:34.132Z,31.30
2022-08-11T16:30:01.755Z,31.40
2022-08-11T16:32:31.245Z,31.30
2022-08-11T16:35:37.826Z,31.30
2022-08-11T16:38:25.181Z,31.30
2022-08-11T16:40:53.562Z,31.30
2022-08-11T16:43:42.382Z,31.30
2022-08-11T16:46:31.013Z,31.30
2022-08-11T16:49:00.237Z,31.20
2022-08-11T16:51:27.107Z,31.20
2022-08-11T16:54:04.854Z,31.20
2022-08-11T16:56:41.746Z,31.20
2022-08-11T16:59:17.614Z,31.20
2022-08-11T17:01:59.285Z,31.20
2022-08-11T17:05:02.895Z,31.20
2022-08-11T17:07:48.858Z,31.20
2022-08-11T17:10:55.641Z,31.20
2022-08-11T17:13:40.224Z,31.20
2022-08-11T17:16:12.969Z,31.20
2022-08-11T17:18:50.146Z,31.20
2022-08-11T17:21:30.045Z,31.20
2022-08-11T17:24:06.412Z,31.20
2022-08-11T17:26:59.275Z,31.20
2022-08-11T17:29:32.113Z,31.20
2022-08-11T17:32:21.069Z,31.20
2022-08-11T17:35:08.933Z,31.10
2022-08-11T17:37:37.727Z,31.10
2022-08-11T17:40:09.857Z,31.10
2022-08-11T17:42:56.258Z,31.10
2022-08-11T17:45:43.029Z,31.10
2022-08-11T17:48:26.224Z,31.10
2022-08-11T17:51:35.105Z,31.10
2022-08-11T17:54:25.046Z,31.00
2022-08-11T17:57:21.351Z,31.00
2022-08-11T17:59:55.300Z,31.00
2022-08-11T18:02:47.045Z,31.00
2022-08-11T18:05:15.292Z,31.00
2022-08-11T18:08:03.061Z,30.90
2022-08-11T18:10:50.007Z,31.00
2022-08-11T18:13:38.895Z,31.00
2022-08-11T18:16:25.272Z,31.00
2022-08-11T18:19:11.015Z,31.00
2022-08-11T18:22:08.234Z,30.90
2022-08-11T18:25:07.514Z,30.90
2022-08-11T18:27:54.901Z,30.90
2022-08-11T18:30:41.839Z,30.90
2022-08-11T18:36:41.433Z,30.90
2022-08-11T18:39:31.086Z,30.80
2022-08-11T18:42:29.211Z,30.80
2022-08-11T18:45:21.739Z,30.80
2022-08-11T18:48:11.661Z,30.70
2022-08-11T18:51:31.359Z,30.80
2022-08-11T18:54:13.634Z,30.70
2022-08-11T18:57:01.407Z,30.70
2022-08-11T18:59:49.798Z,30.60
2022-08-11T19:02:49.427Z,30.60
2022-08-11T19:06:06.089Z,30.50
2022-08-11T19:08:46.574Z,30.50
2022-08-11T19:11:33.078Z,30.50
2022-08-11T19:14:21.708Z,30.40
2022-08-11T19:17:09.803Z,30.40
2022-08-11T19:19:57.977Z,30.40
2022-08-11T19:22:45.613Z,30.30
2022-08-11T19:25:31.610Z,30.30
2022-08-11T19:28:16.998Z,30.30
2022-08-11T19:31:02.758Z,30.20
2022-08-11T19:33:59.838Z,30.00
2022-08-11T19:36:47.459Z,29.90
2022-08-11T19:39:33.864Z,29.80
2022-08-11T19:42:20.963Z,29.70
2022-08-11T19:45:07.273Z,29.60
2022-08-11T19:48:08.195Z,29.50
2022-08-11T19:51:00.527Z,29.40
2022-08-11T19:53:47.652Z,29.30
2022-08-11T19:56:34.617Z,29.20
2022-08-11T19:59:21.141Z,29.20
2022-08-11T20:02:13.915Z,29.10
2022-08-11T20:05:00.928Z,29.00
2022-08-11T20:07:48.352Z,28.90
2022-08-11T20:10:38.283Z,28.80
2022-08-11T20:16:14.230Z,28.70
2022-08-11T20:19:00.959Z,28.60
2022-08-11T20:21:47.150Z,28.50
2022-08-11T20:24:34.162Z,28.50
2022-08-11T20:27:24.535Z,28.40
2022-08-11T20:30:11.370Z,28.30
2022-08-11T20:32:59.053Z,28.20
2022-08-11T20:35:45.351Z,28.10
2022-08-11T20:38:33.832Z,28.10
2022-08-11T20:41:21.953Z,28.00
2022-08-11T20:44:09.538Z,27.90
2022-08-11T20:46:57.721Z,27.90
2022-08-11T20:49:53.804Z,27.80
2022-08-11T20:52:47.504Z,27.70
2022-08-11T20:55:51.150Z,27.60
2022-08-11T20:59:13.305Z,27.50
2022-08-11T21:01:51.243Z,27.40
2022-08-11T21:04:37.667Z,27.40
2022-08-11T21:07:41.411Z,27.30
2022-08-11T21:10:29.551Z,27.20
2022-08-11T21:13:26.179Z,27.20
2022-08-11T21:16:25.505Z,27.10
2022-08-11T21:20:01.342Z,27.10
2022-08-11T21:23:19.829Z,27.00
2022-08-11T21:26:14.747Z,26.90
2022-08-11T21:29:01.519Z,26.80
2022-08-11T21:31:51.173Z,26.80
2022-08-11T21:34:39.840Z,26.70
2022-08-11T21:37:27.822Z,26.60
2022-08-11T21:40:17.492Z,26.60
2022-08-11T21:43:05.616Z,26.50
2022-08-11T21:45:54.385Z,26.40
2022-08-11T21:48:41.393Z,26.30
2022-08-11T21:51:26.750Z,26.20
2022-08-11T21:54:12.761Z,26.10
2022-08-11T21:56:59.114Z,26.10
2022-08-11T22:00:06.970Z,26.00
2022-08-11T22:02:53.943Z,26.00
2022-08-11T22:05:40.509Z,25.90
2022-08-11T22:08:27.230Z,25.90
2022-08-11T22:11:14.224Z,25.90
2022-08-11T22:14:01.277Z,25.80
2022-08-11T22:16:52.474Z,25.80
2022-08-11T22:19:39.429Z,25.80
2022-08-11T22:22:26.375Z,25.70
2022-08-11T22:25:16.691Z,25.70
2022-08-11T22:28:04.170Z,25.60
2022-08-11T22:30:49.446Z,25.60
2022-08-11T22:33:36.250Z,25.60
2022-08-11T22:36:28.240Z,25.50
2022-08-11T22:39:16.917Z,25.50
2022-08-11T22:42:02.437Z,25.40
2022-08-11T22:44:47.921Z,25.40
2022-08-11T22:47:40.245Z,25.30
2022-08-11T22:50:27.534Z,25.30
2022-08-11T22:53:13.963Z,25.30
2022-08-11T22:56:00.068Z,25.20
2022-08-11T22:58:46.170Z,25.10
2022-08-11T23:01:35.688Z,25.10
2022-08-11T23:04:21.997Z,25.00
2022-08-11T23:07:08.348Z,24.90
2022-08-11T23:09:54.537Z,24.90
2022-08-11T23:12:40.409Z,24.80
2022-08-11T23:15:31.038Z,24.70
2022-08-11T23:18:16.654Z,24.70
2022-08-11T23:21:03.134Z,24.70
2022-08-11T23:23:49.238Z,24.60
2022-08-11T23:26:37.432Z,24.60
2022-08-11T23:29:25.136Z,24.60
2022-08-11T23:32:11.112Z,24.60
2022-08-11T23:35:04.555Z,24.50
2022-08-11T23:38:05.354Z,24.50
2022-08-11T23:40:50.995Z,24.40
2022-08-11T23:43:41.629Z,24.40
2022-08-11T23:46:27.489Z,24.40
2022-08-11T23:49:17.357Z,24.30
2022-08-11T23:52:03.513Z,24.20
2022-08-11T23:54:49.734Z,24.10
2022-08-11T23:57:35.311Z,24.10
